Terminal Aerodrome Forecast
Issued by NWS

Home | Current Version | Previous Version | Graphics & Text | Print | Product List | Glossary On
Versions: 1 2 3 4 5 6 7 8 9 10 11 12 13
000
FTUS45 KGGW 202320
TAFSDY
TAF
KSDY 202320Z 2100/2124 18006KT P6SM SCT170
     FM210100 25007KT P6SM SCT160
     FM210300 28012KT P6SM SCT140
     FM210500 28020G29KT P6SM SCT130
     FM212300 28013KT P6SM FEW040=

USA.gov is the U.S. government's official web portal to all federal, state and local government web resources and services.